TimeCDT,TemperatureF,Dew PointF,Humidity,Sea Level PressureIn,VisibilityMPH,Wind Direction,Wind SpeedMPH,Gust SpeedMPH,PrecipitationIn,Events,Conditions,WindDirDegrees,DateUTC
12:15 AM,77.0,69.1,76,29.89,10.0,NNE,3.5,-,N/A,,Clear,20,2013-09-14 05:15:00
12:35 AM,76.3,70.0,81,29.89,10.0,Calm,Calm,-,N/A,,Clear,0,2013-09-14 05:35:00
12:55 AM,75.4,72.3,90,29.89,10.0,Calm,Calm,-,N/A,,Clear,0,2013-09-14 05:55:00
1:15 AM,75.4,73.8,95,29.89,10.0,Calm,Calm,-,N/A,,Clear,0,2013-09-14 06:15:00
1:35 AM,75.6,73.6,94,29.88,10.0,Calm,Calm,-,N/A,,Clear,0,2013-09-14 06:35:00
1:55 AM,75.4,73.9,95,29.88,10.0,Calm,Calm,-,N/A,,Scattered Clouds,0,2013-09-14 06:55:00
2:15 AM,75.6,74.3,96,29.88,10.0,Calm,Calm,-,N/A,,Scattered Clouds,0,2013-09-14 07:15:00
2:35 AM,75.4,74.3,96,29.88,10.0,NNE,3.5,-,N/A,,Clear,30,2013-09-14 07:35:00
2:55 AM,75.2,73.9,96,29.89,10.0,NNE,6.9,-,N/A,,Clear,30,2013-09-14 07:55:00
3:15 AM,74.7,73.8,97,29.89,10.0,NNE,8.1,-,N/A,,Clear,30,2013-09-14 08:15:00
3:35 AM,74.7,73.6,96,29.89,10.0,NE,4.6,-,N/A,,Mostly Cloudy,50,2013-09-14 08:35:00
3:55 AM,74.5,73.6,97,29.88,10.0,Calm,Calm,-,N/A,,Mostly Cloudy,0,2013-09-14 08:55:00
4:15 AM,74.8,73.8,96,29.88,10.0,North,3.5,-,N/A,,Overcast,10,2013-09-14 09:15:00
4:35 AM,75.2,73.8,95,29.89,10.0,NNE,3.5,-,N/A,,Overcast,20,2013-09-14 09:35:00
4:55 AM,75.4,72.7,91,29.89,10.0,North,6.9,-,N/A,,Mostly Cloudy,10,2013-09-14 09:55:00
5:15 AM,75.2,73.4,94,29.89,10.0,NNE,5.8,-,N/A,,Scattered Clouds,20,2013-09-14 10:15:00
5:35 AM,75.2,73.6,95,29.89,10.0,North,5.8,-,N/A,,Clear,10,2013-09-14 10:35:00
5:55 AM,75.4,73.4,94,29.89,10.0,NNE,5.8,-,N/A,,Clear,30,2013-09-14 10:55:00
6:00 AM,75.2,73.4,94,29.89,7.0,NE,6.9,-,N/A,,Scattered Clouds,40,2013-09-14 11:00:00
6:15 AM,74.8,73.8,96,29.90,10.0,NNE,4.6,-,N/A,,Clear,30,2013-09-14 11:15:00
6:35 AM,74.7,73.8,97,29.90,10.0,NNE,6.9,-,N/A,,Clear,20,2013-09-14 11:35:00
6:50 AM,73.4,73.4,100,29.91,7.0,NNE,8.1,-,N/A,,Mostly Cloudy,30,2013-09-14 11:50:00
6:55 AM,73.9,72.9,96,29.91,10.0,NNE,8.1,-,N/A,,Clear,20,2013-09-14 11:55:00
7:51 AM,73.4,71.6,94,29.93,10.0,NNE,6.9,-,N/A,,Mostly Cloudy,30,2013-09-14 12:51:00
8:50 AM,77.0,68.0,74,29.94,10.0,ENE,8.1,-,N/A,,Clear,60,2013-09-14 13:50:00
9:50 AM,80.6,69.8,70,29.95,7.0,NE,8.1,-,N/A,,Clear,50,2013-09-14 14:50:00
10:50 AM,82.4,69.8,66,29.95,7.0,East,6.9,-,N/A,,Clear,90,2013-09-14 15:50:00
11:50 AM,87.8,69.8,55,29.94,10.0,East,6.9,-,N/A,,Clear,80,2013-09-14 16:50:00
12:55 PM,89.6,69.8,52,29.93,10.0,Calm,Calm,-,N/A,,Mostly Cloudy,0,2013-09-14 17:55:00
1:47 PM,89.6,69.8,52,29.92,10.0,NNE,8.1,-,N/A,,Mostly Cloudy,30,2013-09-14 18:47:00
2:50 PM,89.6,69.8,52,29.89,10.0,East,8.1,-,N/A,,Mostly Cloudy,80,2013-09-14 19:50:00
3:50 PM,84.2,69.8,62,29.89,10.0,East,5.8,-,N/A,,Scattered Clouds,90,2013-09-14 20:50:00
4:50 PM,89.6,66.2,46,29.88,10.0,ESE,5.8,-,N/A,,Mostly Cloudy,110,2013-09-14 21:50:00
5:50 PM,80.6,69.8,70,29.89,10.0,SSE,9.2,-,N/A,,Mostly Cloudy,160,2013-09-14 22:50:00
6:50 PM,80.6,69.8,70,29.91,10.0,South,5.8,-,N/A,,Mostly Cloudy,170,2013-09-14 23:50:00
7:50 PM,80.6,69.8,70,29.92,10.0,Calm,Calm,-,N/A,,Mostly Cloudy,0,2013-09-15 00:50:00
8:50 PM,78.8,69.8,74,29.94,10.0,SE,4.6,-,N/A,,Mostly Cloudy,140,2013-09-15 01:50:00
9:50 PM,77.0,71.6,83,29.95,10.0,Calm,Calm,-,N/A,,Clear,0,2013-09-15 02:50:00
11:15 PM,77.5,70.9,80,29.96,10.0,NE,3.5,-,N/A,,Clear,50,2013-09-15 04:15:00
11:35 PM,77.4,71.1,81,29.96,10.0,NE,4.6,-,N/A,,Clear,40,2013-09-15 04:35:00
11:55 PM,77.2,71.6,83,29.96,10.0,NE,3.5,-,N/A,,Clear,40,2013-09-15 04:55:00